Time;durP1;ratioP1;P1;durP2;ratioP2;P2;SDS_P1;SDS_P2;PMS_P1;PMS_P2;Temp;Humidity;BMP_temperature;BMP_pressure;BME280_temperature;BME280_humidity;BME280_pressure;Samples;Min_cycle;Max_cycle;Signal;HPM_P1;HPM_P2
2024/03/25 00:00:21;;;;;;;4.77;2.97;;;5.80;80.00;;;;;;4996961;28;20425;-70
2024/03/25 00:02:46;;;;;;;7.63;2.80;;;5.90;80.00;;;;;;4987879;28;20706;-70
2024/03/25 00:05:14;;;;;;;4.63;2.80;;;5.80;79.70;;;;;;4998824;28;20432;-71
2024/03/25 00:07:40;;;;;;;5.60;3.00;;;5.80;79.90;;;;;;4988992;28;20194;-70
2024/03/25 00:10:08;;;;;;;3.40;2.40;;;5.90;79.90;;;;;;4995898;28;20536;-72
2024/03/25 00:12:34;;;;;;;5.67;2.60;;;5.90;79.90;;;;;;4987995;28;20453;-71
2024/03/25 00:14:59;;;;;;;3.80;2.50;;;5.90;79.90;;;;;;4994835;28;20421;-71
2024/03/25 00:17:25;;;;;;;6.80;2.93;;;5.90;79.90;;;;;;4988691;28;20466;-70
2024/03/25 00:19:50;;;;;;;7.80;3.03;;;5.90;79.70;;;;;;4996084;28;20261;-71
2024/03/25 00:22:21;;;;;;;8.20;3.10;;;5.90;79.60;;;;;;4993991;28;20242;-71
2024/03/25 00:24:47;;;;;;;6.30;2.60;;;5.90;79.60;;;;;;5001646;28;20174;-72
2024/03/25 00:27:13;;;;;;;4.20;2.80;;;5.80;79.60;;;;;;4995247;28;20478;-72
2024/03/25 00:29:39;;;;;;;5.50;2.03;;;5.80;79.90;;;;;;4994205;28;20918;-71
2024/03/25 00:32:05;;;;;;;4.30;2.30;;;5.80;79.60;;;;;;4989308;28;20527;-70
2024/03/25 00:34:32;;;;;;;5.07;2.97;;;5.70;79.90;;;;;;4996476;28;20969;-69
2024/03/25 00:36:58;;;;;;;5.40;2.73;;;5.70;79.90;;;;;;4994431;28;20453;-71
2024/03/25 00:39:24;;;;;;;4.60;2.50;;;5.70;79.70;;;;;;5001548;28;20477;-70
2024/03/25 00:41:49;;;;;;;5.87;2.80;;;5.70;80.00;;;;;;4995215;28;20473;-73
2024/03/25 00:44:15;;;;;;;5.90;2.70;;;5.70;79.90;;;;;;4994812;28;20656;-71
2024/03/25 00:46:41;;;;;;;8.53;3.97;;;5.70;79.90;;;;;;4993724;28;20183;-71
2024/03/25 00:49:07;;;;;;;4.27;2.60;;;5.70;79.90;;;;;;5000817;28;20199;-72
2024/03/25 00:51:33;;;;;;;4.43;2.50;;;5.70;79.60;;;;;;4988515;28;20497;-70
2024/03/25 00:53:58;;;;;;;4.93;2.63;;;5.70;79.70;;;;;;4994329;28;20493;-70
2024/03/25 00:56:24;;;;;;;4.30;2.40;;;5.70;79.90;;;;;;4996211;28;20190;-71
2024/03/25 00:58:50;;;;;;;6.43;3.10;;;5.70;79.70;;;;;;5003758;28;20701;-71
2024/03/25 01:01:16;;;;;;;7.63;3.10;;;5.70;79.70;;;;;;4988853;28;20219;-70
2024/03/25 01:03:41;;;;;;;6.10;3.27;;;5.70;79.90;;;;;;4999065;28;20189;-69
2024/03/25 01:06:07;;;;;;;6.60;3.30;;;5.70;79.90;;;;;;4998225;28;20426;-71
2024/03/25 01:08:34;;;;;;;6.47;3.13;;;5.60;79.90;;;;;;4993785;28;20582;-71
2024/03/25 01:11:00;;;;;;;7.20;3.10;;;5.60;80.00;;;;;;4989302;28;20202;-71
2024/03/25 01:13:25;;;;;;;8.80;3.30;;;5.60;80.00;;;;;;4994497;28;20421;-71
2024/03/25 01:15:51;;;;;;;8.00;2.70;;;5.60;79.90;;;;;;4997405;28;20178;-72
2024/03/25 01:18:17;;;;;;;6.80;3.50;;;5.60;80.00;;;;;;4993605;28;20902;-71
2024/03/25 01:20:44;;;;;;;9.10;3.20;;;5.50;80.30;;;;;;4986495;28;21011;-71
2024/03/25 01:23:10;;;;;;;7.03;2.80;;;5.60;80.20;;;;;;4999362;28;20442;-69
2024/03/25 01:25:35;;;;;;;7.23;3.40;;;5.60;80.20;;;;;;4996377;28;20492;-70
2024/03/25 01:28:01;;;;;;;5.50;3.10;;;5.50;79.90;;;;;;4994072;28;21047;-70
2024/03/25 01:30:28;;;;;;;14.23;4.03;;;5.50;80.20;;;;;;4999739;28;20350;-71
2024/03/25 01:32:54;;;;;;;6.13;2.93;;;5.50;80.20;;;;;;4987033;28;20441;-71
2024/03/25 01:35:20;;;;;;;3.87;2.77;;;5.50;80.20;;;;;;4999426;28;20417;-71
2024/03/25 01:37:45;;;;;;;7.07;3.17;;;5.50;79.90;;;;;;4992581;28;20225;-70
2024/03/25 01:40:11;;;;;;;5.33;3.10;;;5.60;79.60;;;;;;4997302;28;20451;-71
2024/03/25 01:42:37;;;;;;;7.63;3.50;;;5.60;79.50;;;;;;4991083;28;20224;-71
2024/03/25 01:45:03;;;;;;;8.70;3.90;;;5.60;79.60;;;;;;4991487;28;20187;-72
2024/03/25 01:47:32;;;;;;;5.43;3.30;;;5.60;79.60;;;;;;4993478;28;20422;-71
2024/03/25 01:49:58;;;;;;;6.30;3.63;;;5.60;79.50;;;;;;4999591;28;20826;-72
2024/03/25 01:52:25;;;;;;;4.80;2.80;;;5.50;79.60;;;;;;4993772;28;20489;-70
2024/03/25 01:54:52;;;;;;;9.10;3.80;;;5.50;79.70;;;;;;4996405;28;20461;-71
2024/03/25 01:57:18;;;;;;;5.03;3.13;;;5.50;79.90;;;;;;4991520;28;20446;-72
2024/03/25 01:59:44;;;;;;;6.07;3.27;;;5.50;79.70;;;;;;4991629;28;21203;-71
2024/03/25 02:02:10;;;;;;;8.27;3.50;;;5.50;79.90;;;;;;4991732;28;20473;-72
2024/03/25 02:04:38;;;;;;;5.73;3.37;;;5.50;79.70;;;;;;4991097;28;20429;-70
2024/03/25 02:07:05;;;;;;;5.80;3.40;;;5.50;80.00;;;;;;4998924;28;20410;-72
2024/03/25 02:09:32;;;;;;;7.40;2.80;;;5.40;80.00;;;;;;4996569;28;20506;-72
2024/03/25 02:11:57;;;;;;;6.30;3.20;;;5.50;80.00;;;;;;4986950;28;20462;-71
2024/03/25 02:14:23;;;;;;;6.53;2.73;;;5.50;80.00;;;;;;4999641;28;20432;-71
2024/03/25 02:16:50;;;;;;;7.70;3.07;;;5.40;80.00;;;;;;4992574;28;20190;-71
2024/03/25 02:19:16;;;;;;;7.03;3.37;;;5.50;79.90;;;;;;4997905;28;20317;-73
2024/03/25 02:21:44;;;;;;;6.83;3.37;;;5.50;80.00;;;;;;4987496;28;20460;-70
2024/03/25 02:24:11;;;;;;;5.03;2.90;;;5.50;80.00;;;;;;4989858;28;20433;-70
2024/03/25 02:26:37;;;;;;;5.93;3.33;;;5.60;80.00;;;;;;4994440;28;21006;-74
2024/03/25 02:29:03;;;;;;;11.83;2.87;;;5.60;79.90;;;;;;5003886;28;20485;-71
2024/03/25 02:31:28;;;;;;;4.70;2.80;;;5.60;79.70;;;;;;4987672;28;20199;-73
2024/03/25 02:33:54;;;;;;;8.03;3.47;;;5.60;79.60;;;;;;4994537;28;20430;-70
2024/03/25 02:36:20;;;;;;;6.00;3.13;;;5.60;79.70;;;;;;4996143;28;20186;-70
2024/03/25 02:38:45;;;;;;;9.43;2.77;;;5.60;79.90;;;;;;4992286;28;20222;-71
2024/03/25 02:41:11;;;;;;;5.97;3.47;;;5.70;79.90;;;;;;4989196;28;20226;-72
2024/03/25 02:43:37;;;;;;;7.40;3.40;;;5.70;79.50;;;;;;4998628;28;20174;-72
2024/03/25 02:46:02;;;;;;;8.60;3.27;;;5.70;79.50;;;;;;4989146;28;20205;-72
2024/03/25 02:48:28;;;;;;;7.97;3.60;;;5.70;79.60;;;;;;4996040;28;20213;-72
2024/03/25 02:50:54;;;;;;;13.23;3.87;;;5.70;79.70;;;;;;4987677;28;20592;-70
2024/03/25 02:53:19;;;;;;;8.47;3.43;;;5.70;79.60;;;;;;4994621;28;20186;-71
2024/03/25 02:55:45;;;;;;;6.33;3.30;;;5.70;79.60;;;;;;4992459;28;20430;-71
2024/03/25 02:58:10;;;;;;;6.40;3.50;;;5.80;79.70;;;;;;4993941;28;20206;-70
2024/03/25 03:00:36;;;;;;;6.13;2.90;;;5.80;79.50;;;;;;4996850;28;20179;-71
2024/03/25 03:03:02;;;;;;;7.60;3.10;;;5.80;79.30;;;;;;4987774;28;20206;-72
2024/03/25 03:05:28;;;;;;;8.80;3.40;;;5.80;79.00;;;;;;4993410;28;20421;-71
2024/03/25 03:07:53;;;;;;;8.63;3.70;;;5.80;79.00;;;;;;4998149;28;20265;-70
2024/03/25 03:10:19;;;;;;;8.70;3.30;;;5.80;79.60;;;;;;4997826;28;20186;-70
2024/03/25 03:12:44;;;;;;;5.23;3.10;;;5.80;79.60;;;;;;4991181;28;20822;-69
2024/03/25 03:15:10;;;;;;;13.83;3.80;;;5.80;79.60;;;;;;4992734;28;20183;-72
2024/03/25 03:17:36;;;;;;;9.23;3.40;;;5.80;79.60;;;;;;4994392;28;20556;-71
2024/03/25 03:20:02;;;;;;;10.17;3.57;;;5.80;79.50;;;;;;4994868;28;20197;-70
2024/03/25 03:22:27;;;;;;;5.87;3.53;;;5.90;79.30;;;;;;4989778;28;20230;-70
2024/03/25 03:24:53;;;;;;;7.10;3.53;;;5.80;79.30;;;;;;4992004;28;20187;-72
2024/03/25 03:27:19;;;;;;;7.83;3.50;;;5.80;79.30;;;;;;4998418;28;20213;-70
2024/03/25 03:29:44;;;;;;;7.03;4.00;;;5.80;79.50;;;;;;4993535;28;20417;-71
2024/03/25 03:32:10;;;;;;;6.70;3.90;;;5.80;79.60;;;;;;4986189;28;20238;-71
2024/03/25 03:34:36;;;;;;;7.20;3.70;;;5.80;79.50;;;;;;4992947;28;20182;-70
2024/03/25 03:37:01;;;;;;;9.03;3.97;;;5.70;79.30;;;;;;4991158;28;20198;-71
2024/03/25 03:39:27;;;;;;;8.53;3.07;;;5.70;79.60;;;;;;4997096;28;20223;-70
2024/03/25 03:41:56;;;;;;;5.40;3.80;;;5.70;79.70;;;;;;4995983;28;20241;-71
2024/03/25 03:44:22;;;;;;;6.90;3.53;;;5.80;79.70;;;;;;4991886;28;20191;-71
2024/03/25 03:46:48;;;;;;;9.93;5.17;;;5.70;80.00;;;;;;4996139;28;20471;-71
2024/03/25 03:49:13;;;;;;;8.00;3.80;;;5.70;80.20;;;;;;4989281;28;20190;-71
2024/03/25 03:51:39;;;;;;;10.63;4.60;;;5.70;80.50;;;;;;4996164;28;20213;-71
2024/03/25 03:54:04;;;;;;;8.53;3.93;;;5.70;80.50;;;;;;4993508;28;20190;-71
2024/03/25 03:56:30;;;;;;;7.87;3.90;;;5.60;80.60;;;;;;4998922;28;20197;-72
2024/03/25 03:58:55;;;;;;;8.70;3.93;;;5.60;80.90;;;;;;4990571;28;20203;-69
2024/03/25 04:01:21;;;;;;;8.40;3.83;;;5.60;80.60;;;;;;4986602;28;20336;-71
2024/03/25 04:03:46;;;;;;;8.33;4.00;;;5.60;80.80;;;;;;4992349;28;20210;-70
2024/03/25 04:06:13;;;;;;;8.13;3.90;;;5.60;80.80;;;;;;4993822;28;20190;-71
2024/03/25 04:08:39;;;;;;;6.17;3.57;;;5.60;80.80;;;;;;4992062;28;20175;-70
2024/03/25 04:11:09;;;;;;;8.33;3.47;;;5.60;80.90;;;;;;4989563;28;20525;-70
2024/03/25 04:13:35;;;;;;;11.70;3.27;;;5.50;81.20;;;;;;4988270;28;20430;-71
2024/03/25 04:16:04;;;;;;;10.23;3.90;;;5.50;81.20;;;;;;4996173;28;20426;-72
2024/03/25 04:18:30;;;;;;;9.00;3.53;;;5.50;81.20;;;;;;4995383;28;20469;-71
2024/03/25 04:20:56;;;;;;;10.13;4.00;;;5.50;80.90;;;;;;4991825;28;20466;-70
2024/03/25 04:23:22;;;;;;;8.00;3.53;;;5.40;81.10;;;;;;4995525;28;20433;-70
2024/03/25 04:25:48;;;;;;;10.13;3.30;;;5.40;81.20;;;;;;4994124;28;20884;-71
2024/03/25 04:28:14;;;;;;;6.63;3.53;;;5.30;81.40;;;;;;4997064;28;20441;-71
2024/03/25 04:30:40;;;;;;;11.60;3.47;;;5.40;81.50;;;;;;4994392;28;20421;-71
2024/03/25 04:33:06;;;;;;;7.97;3.97;;;5.40;81.40;;;;;;4993817;28;20445;-71
2024/03/25 04:35:31;;;;;;;9.07;4.23;;;5.40;81.40;;;;;;5000169;28;20198;-70
2024/03/25 04:37:57;;;;;;;11.23;4.00;;;5.40;80.80;;;;;;4995095;28;20568;-72
2024/03/25 04:40:23;;;;;;;8.17;3.90;;;5.40;80.80;;;;;;4994157;28;20257;-72
2024/03/25 04:42:49;;;;;;;8.20;3.63;;;5.40;80.80;;;;;;4989810;28;20245;-72
2024/03/25 04:45:15;;;;;;;10.47;3.80;;;5.30;80.60;;;;;;4995619;28;20189;-71
2024/03/25 04:47:40;;;;;;;8.10;3.63;;;5.20;80.90;;;;;;4995344;28;20422;-70
2024/03/25 04:50:07;;;;;;;5.90;3.40;;;5.30;81.10;;;;;;4993875;28;20493;-72
2024/03/25 04:52:32;;;;;;;6.77;3.83;;;5.20;81.10;;;;;;4996211;28;20298;-72
2024/03/25 04:54:58;;;;;;;10.00;3.90;;;5.20;81.10;;;;;;4994759;28;20414;-70
2024/03/25 04:57:24;;;;;;;9.40;3.83;;;5.20;81.10;;;;;;4997943;28;20265;-69
2024/03/25 04:59:51;;;;;;;9.67;4.37;;;5.20;81.20;;;;;;4991727;28;20439;-73
2024/03/25 05:02:16;;;;;;;8.43;4.00;;;5.20;81.40;;;;;;4990989;28;20333;-71
2024/03/25 05:04:42;;;;;;;8.50;3.83;;;5.20;81.20;;;;;;4995909;28;20434;-71
2024/03/25 05:07:07;;;;;;;16.13;4.27;;;5.20;81.20;;;;;;5001876;28;20734;-72
2024/03/25 05:09:33;;;;;;;7.60;3.53;;;5.20;81.10;;;;;;4993496;28;20189;-72
2024/03/25 05:12:01;;;;;;;7.87;4.13;;;5.20;81.10;;;;;;4989386;28;20257;-73
2024/03/25 05:14:26;;;;;;;9.07;4.23;;;5.10;81.10;;;;;;4991558;28;20233;-71
2024/03/25 05:16:53;;;;;;;9.47;4.37;;;5.10;81.20;;;;;;4991629;28;20963;-72
2024/03/25 05:19:19;;;;;;;16.40;4.30;;;5.10;81.10;;;;;;4993761;28;20233;-72
2024/03/25 05:21:44;;;;;;;8.00;3.67;;;5.10;81.20;;;;;;4992074;28;20465;-71
2024/03/25 05:24:10;;;;;;;6.00;3.97;;;5.10;81.10;;;;;;4992259;28;20277;-70
2024/03/25 05:26:36;;;;;;;8.00;3.60;;;5.10;81.20;;;;;;4990855;28;20418;-72
2024/03/25 05:29:02;;;;;;;10.90;4.17;;;5.10;81.10;;;;;;4998617;28;20457;-72
2024/03/25 05:31:28;;;;;;;11.00;4.20;;;5.10;81.20;;;;;;4987237;28;20336;-71
2024/03/25 05:33:54;;;;;;;6.30;4.07;;;5.10;81.20;;;;;;4992433;28;20445;-71
2024/03/25 05:36:19;;;;;;;8.20;4.10;;;5.20;81.40;;;;;;5001102;28;20417;-73
2024/03/25 05:38:45;;;;;;;9.90;4.60;;;5.20;81.10;;;;;;4999051;28;20213;-70
2024/03/25 05:41:11;;;;;;;11.00;4.40;;;5.20;81.10;;;;;;4991845;28;20481;-71
2024/03/25 05:43:37;;;;;;;9.90;4.23;;;5.20;80.90;;;;;;4991958;28;20185;-70
2024/03/25 05:46:03;;;;;;;12.63;4.50;;;5.30;80.80;;;;;;4993660;28;20193;-70
2024/03/25 05:48:29;;;;;;;10.80;4.90;;;5.30;80.50;;;;;;4992421;28;20492;-70
2024/03/25 05:51:05;;;;;;;9.23;3.80;;;5.30;80.30;;;;;;4992460;28;20454;-70
2024/03/25 05:53:31;;;;;;;11.03;3.90;;;5.30;80.00;;;;;;4997674;28;20417;-71
2024/03/25 05:55:59;;;;;;;9.13;3.93;;;5.30;80.20;;;;;;4997484;28;20953;-70
2024/03/25 05:58:24;;;;;;;10.23;4.43;;;5.30;80.20;;;;;;4994017;28;20480;-70
2024/03/25 06:00:50;;;;;;;5.87;3.30;;;5.20;80.20;;;;;;4994735;28;20441;-72
2024/03/25 06:03:17;;;;;;;7.87;3.43;;;5.30;80.20;;;;;;4996210;28;20441;-73
2024/03/25 06:05:42;;;;;;;6.70;4.50;;;5.20;80.30;;;;;;4993874;28;20194;-71
2024/03/25 06:08:15;;;;;;;10.07;4.17;;;5.20;80.30;;;;;;4996743;28;20418;-69
2024/03/25 06:10:41;;;;;;;9.13;3.97;;;5.20;80.30;;;;;;4989366;28;20187;-70
2024/03/25 06:13:07;;;;;;;9.30;5.07;;;5.20;80.50;;;;;;4987567;28;20437;-71
2024/03/25 06:15:33;;;;;;;7.10;3.90;;;5.20;80.30;;;;;;4991366;28;20922;-72
2024/03/25 06:17:58;;;;;;;6.60;3.60;;;5.20;80.50;;;;;;4993245;28;20641;-71
2024/03/25 06:20:24;;;;;;;11.07;4.57;;;5.20;80.50;;;;;;4992293;28;20187;-71
2024/03/25 06:22:50;;;;;;;15.23;4.40;;;5.20;80.30;;;;;;4989559;28;20233;-71
2024/03/25 06:25:17;;;;;;;9.00;3.80;;;5.20;80.50;;;;;;4995128;28;20213;-72
2024/03/25 06:27:43;;;;;;;8.77;4.30;;;5.30;80.00;;;;;;4993906;28;20524;-72
2024/03/25 06:35:38;;;;;;;8.70;4.00;;;5.40;80.60;;;;;;4987762;28;20417;-72
2024/03/25 06:38:04;;;;;;;13.13;6.10;;;5.50;80.60;;;;;;4990006;28;20488;-72
2024/03/25 06:40:30;;;;;;;7.10;4.20;;;5.60;79.90;;;;;;4998498;28;20198;-72
2024/03/25 06:42:56;;;;;;;7.07;4.23;;;5.70;79.50;;;;;;4984440;28;20465;-72
2024/03/25 06:45:22;;;;;;;16.60;5.03;;;5.70;79.30;;;;;;4994400;28;20458;-71
2024/03/25 06:47:47;;;;;;;11.23;4.37;;;5.60;79.50;;;;;;4994211;28;20248;-71
2024/03/25 06:50:13;;;;;;;10.03;4.97;;;5.60;79.30;;;;;;4993117;28;20186;-70
2024/03/25 06:52:38;;;;;;;8.43;3.90;;;5.60;79.30;;;;;;4987142;28;20202;-72
2024/03/25 06:55:04;;;;;;;10.60;4.27;;;5.60;79.50;;;;;;4989823;28;20194;-71
2024/03/25 06:57:30;;;;;;;18.00;4.60;;;5.70;79.60;;;;;;4987045;28;20190;-72
2024/03/25 06:59:57;;;;;;;10.17;3.83;;;5.70;79.30;;;;;;4994049;28;20429;-73
2024/03/25 07:02:23;;;;;;;10.10;4.33;;;5.80;79.30;;;;;;4985718;28;20210;-71
2024/03/25 07:04:49;;;;;;;8.90;5.53;;;5.80;78.60;;;;;;4992630;28;20422;-73
2024/03/25 07:07:14;;;;;;;8.13;4.40;;;5.80;78.40;;;;;;4985988;28;20190;-71
2024/03/25 07:09:40;;;;;;;15.77;4.80;;;5.80;78.60;;;;;;4995726;28;20273;-72
2024/03/25 07:12:06;;;;;;;9.80;4.73;;;5.80;78.60;;;;;;4991768;28;20214;-71
2024/03/25 07:14:32;;;;;;;11.93;4.73;;;5.80;78.40;;;;;;4994807;28;20428;-71
2024/03/25 07:16:58;;;;;;;7.87;4.00;;;5.80;78.60;;;;;;4998406;28;20500;-72
2024/03/25 07:19:23;;;;;;;8.13;4.63;;;5.80;78.70;;;;;;4997000;28;20564;-71
2024/03/25 07:21:49;;;;;;;11.63;5.00;;;5.80;78.90;;;;;;4987928;28;20206;-72
2024/03/25 07:24:15;;;;;;;12.00;4.17;;;5.90;78.90;;;;;;4994686;28;20178;-74
2024/03/25 07:26:40;;;;;;;7.53;4.27;;;6.00;78.60;;;;;;4991982;28;20240;-72
2024/03/25 07:29:06;;;;;;;9.30;4.30;;;6.00;78.40;;;;;;4993638;28;20186;-72
2024/03/25 07:31:31;;;;;;;8.70;4.07;;;6.10;77.80;;;;;;4985007;28;20703;-71
2024/03/25 07:33:57;;;;;;;8.80;4.40;;;6.10;77.80;;;;;;4994695;28;20178;-72
2024/03/25 07:36:23;;;;;;;10.93;4.50;;;6.20;77.60;;;;;;4993347;28;20186;-72
2024/03/25 07:38:48;;;;;;;11.83;4.97;;;6.20;77.40;;;;;;4993493;28;20221;-71
2024/03/25 07:41:14;;;;;;;8.27;4.13;;;6.30;77.10;;;;;;4992181;28;20965;-71
2024/03/25 07:43:39;;;;;;;10.93;4.33;;;6.40;76.50;;;;;;4997971;28;20178;-73
2024/03/25 07:46:05;;;;;;;10.77;4.33;;;6.50;76.70;;;;;;4999024;28;20191;-74
2024/03/25 07:48:31;;;;;;;9.03;5.00;;;6.60;76.20;;;;;;4995026;28;20186;-71
2024/03/25 07:50:56;;;;;;;9.43;5.00;;;6.70;75.40;;;;;;4989383;28;20493;-71
2024/03/25 07:53:22;;;;;;;8.37;4.13;;;6.80;75.10;;;;;;4990041;28;20197;-70
2024/03/25 07:55:47;;;;;;;6.80;4.13;;;6.80;74.60;;;;;;5001964;28;20184;-73
2024/03/25 07:58:13;;;;;;;8.90;4.60;;;6.80;74.50;;;;;;4999010;28;20218;-72
2024/03/25 08:00:38;;;;;;;11.33;4.07;;;6.90;74.30;;;;;;4995087;28;20644;-72
2024/03/25 08:03:04;;;;;;;13.30;4.27;;;7.00;73.30;;;;;;4996959;28;20198;-71
2024/03/25 08:05:30;;;;;;;9.20;4.33;;;7.10;73.30;;;;;;4998992;28;20779;-73
2024/03/25 08:07:56;;;;;;;6.50;3.67;;;7.20;72.10;;;;;;4995040;28;20320;-72
2024/03/25 08:10:21;;;;;;;9.80;3.60;;;7.30;71.40;;;;;;5001863;28;20509;-73
2024/03/25 08:12:48;;;;;;;8.17;3.50;;;7.40;70.80;;;;;;4991113;28;21120;-73
2024/03/25 08:15:14;;;;;;;5.70;3.80;;;7.60;70.40;;;;;;4987967;28;21005;-74
2024/03/25 08:17:39;;;;;;;5.80;3.57;;;7.70;69.90;;;;;;4997978;28;20516;-72
2024/03/25 08:20:05;;;;;;;11.00;3.33;;;7.80;69.80;;;;;;4999985;28;20456;-72
2024/03/25 08:22:31;;;;;;;7.43;3.20;;;8.00;67.90;;;;;;4991005;28;20206;-73
2024/03/25 08:24:56;;;;;;;5.83;2.77;;;7.90;67.20;;;;;;4996746;28;20572;-72
2024/03/25 08:27:22;;;;;;;8.33;2.40;;;8.00;67.20;;;;;;4995948;28;20179;-71
2024/03/25 08:29:51;;;;;;;7.43;3.30;;;8.10;66.10;;;;;;4990688;28;20269;-74
2024/03/25 08:32:16;;;;;;;7.37;3.20;;;8.20;66.00;;;;;;4991941;28;20210;-73
2024/03/25 08:34:42;;;;;;;4.97;3.10;;;8.30;66.60;;;;;;4991575;28;20423;-73
2024/03/25 08:37:07;;;;;;;5.13;3.17;;;8.40;66.90;;;;;;4992797;28;20205;-72
2024/03/25 08:39:33;;;;;;;6.97;3.10;;;8.40;66.60;;;;;;4993004;28;20202;-70
2024/03/25 08:41:58;;;;;;;3.00;2.30;;;8.40;66.40;;;;;;4988671;28;20226;-71
2024/03/25 08:44:24;;;;;;;5.67;2.50;;;8.50;66.30;;;;;;4993985;28;20182;-72
2024/03/25 08:46:50;;;;;;;8.60;2.50;;;8.50;66.00;;;;;;4994005;28;20249;-73
2024/03/25 08:49:15;;;;;;;4.20;2.00;;;8.50;64.50;;;;;;4992417;28;20190;-72
2024/03/25 08:51:41;;;;;;;4.13;2.27;;;8.70;64.40;;;;;;4990058;28;20206;-72
2024/03/25 08:54:06;;;;;;;2.90;1.90;;;8.90;64.40;;;;;;4992747;28;20183;-71
2024/03/25 08:56:32;;;;;;;5.47;2.47;;;8.80;63.50;;;;;;4995632;28;20651;-73
2024/03/25 08:58:57;;;;;;;3.10;1.93;;;8.30;64.20;;;;;;4996336;28;20300;-73
2024/03/25 09:01:24;;;;;;;3.93;2.20;;;8.50;64.50;;;;;;4991009;28;20218;-73
2024/03/25 09:03:50;;;;;;;6.13;2.43;;;8.60;64.70;;;;;;4994261;28;20179;-71
2024/03/25 09:06:16;;;;;;;5.10;2.40;;;8.50;64.80;;;;;;4996470;28;20480;-74
2024/03/25 09:11:26;;;;;;;4.97;2.10;;;8.70;63.90;;;;;;4992477;28;20463;-69
2024/03/25 09:13:52;;;;;;;3.00;1.90;;;8.40;64.70;;;;;;4992934;28;20504;-74
2024/03/25 09:16:19;;;;;;;4.80;2.23;;;8.30;65.10;;;;;;4996649;28;20421;-72
2024/03/25 09:18:45;;;;;;;8.00;2.07;;;8.50;65.10;;;;;;4996653;28;20476;-73
2024/03/25 09:21:12;;;;;;;9.23;2.77;;;8.60;64.50;;;;;;4989290;28;20520;-71
2024/03/25 09:23:38;;;;;;;4.77;2.23;;;8.80;64.10;;;;;;4993456;28;20904;-72
2024/03/25 09:26:03;;;;;;;6.50;2.40;;;8.70;63.70;;;;;;4994277;28;20529;-73
2024/03/25 09:28:29;;;;;;;4.60;2.70;;;8.80;63.40;;;;;;4995212;28;20198;-71
2024/03/25 09:30:55;;;;;;;6.90;2.30;;;8.60;62.60;;;;;;4992672;28;20754;-72
2024/03/25 09:33:20;;;;;;;3.20;1.63;;;8.70;61.50;;;;;;4990720;28;20194;-73
2024/03/25 09:35:47;;;;;;;3.00;1.90;;;8.90;60.60;;;;;;4994980;28;20272;-71
2024/03/25 09:38:12;;;;;;;3.13;2.17;;;9.20;60.30;;;;;;4991482;28;20215;-72
2024/03/25 09:40:41;;;;;;;2.80;1.80;;;9.30;59.70;;;;;;4992021;28;20432;-72
2024/03/25 09:43:20;;;;;;;2.60;1.80;;;9.50;58.90;;;;;;4996477;28;20620;-73
2024/03/25 09:45:48;;;;;;;3.20;1.80;;;9.60;58.90;;;;;;4993544;28;20414;-72
2024/03/25 09:48:16;;;;;;;4.03;2.07;;;9.70;59.10;;;;;;4999724;28;20828;-72
2024/03/25 09:50:46;;;;;;;4.50;2.20;;;9.80;58.90;;;;;;4990384;28;20441;-69
2024/03/25 09:53:12;;;;;;;5.60;3.13;;;9.90;59.50;;;;;;4988919;28;20434;-70
2024/03/25 09:55:37;;;;;;;4.50;1.93;;;9.90;59.50;;;;;;4993602;28;20476;-72
2024/03/25 09:58:05;;;;;;;2.37;1.87;;;10.00;59.10;;;;;;4997377;28;20222;-72
2024/03/25 10:00:30;;;;;;;4.67;2.30;;;10.00;58.80;;;;;;4993689;28;20206;-72
2024/03/25 10:02:56;;;;;;;6.30;2.10;;;10.10;58.80;;;;;;4991477;28;20958;-73
2024/03/25 10:05:21;;;;;;;3.90;2.50;;;10.10;58.70;;;;;;4996241;28;20179;-73
2024/03/25 10:07:47;;;;;;;5.30;2.40;;;10.20;58.50;;;;;;4999037;28;20198;-70
2024/03/25 10:10:13;;;;;;;3.90;1.80;;;10.40;58.10;;;;;;4995594;28;20194;-72
2024/03/25 10:12:38;;;;;;;3.33;2.40;;;10.50;58.00;;;;;;4994523;28;20464;-73
2024/03/25 10:15:05;;;;;;;5.13;2.23;;;10.60;57.60;;;;;;4996068;28;20344;-71
2024/03/25 10:17:31;;;;;;;4.90;2.30;;;10.50;57.60;;;;;;4995890;28;20179;-71
2024/03/25 10:19:57;;;;;;;4.70;2.40;;;10.20;58.90;;;;;;4992791;28;20505;-72
2024/03/25 10:22:23;;;;;;;7.63;2.30;;;10.30;59.30;;;;;;4991993;28;21096;-73
2024/03/25 10:24:48;;;;;;;7.27;3.17;;;10.10;59.50;;;;;;4991372;28;20178;-72
2024/03/25 10:27:23;;;;;;;4.03;2.80;;;10.20;59.60;;;;;;4990942;28;20273;-72
2024/03/25 10:29:55;;;;;;;4.60;2.60;;;9.90;59.90;;;;;;4994036;28;20177;-72
2024/03/25 10:32:20;;;;;;;4.47;2.87;;;9.60;60.40;;;;;;4988522;28;20457;-71
2024/03/25 10:34:46;;;;;;;6.40;3.03;;;9.70;61.20;;;;;;4996823;28;20433;-71
2024/03/25 10:37:13;;;;;;;4.30;2.87;;;9.90;60.30;;;;;;4993760;28;20191;-71
2024/03/25 10:39:50;;;;;;;4.87;2.37;;;9.80;59.70;;;;;;4992356;28;20604;-74
2024/03/25 10:42:19;;;;;;;5.17;2.63;;;10.00;59.70;;;;;;4989283;28;20485;-70
2024/03/25 10:44:45;;;;;;;3.90;2.53;;;10.00;59.70;;;;;;4991196;28;21068;-72
2024/03/25 10:47:17;;;;;;;3.83;2.20;;;10.30;60.10;;;;;;4995512;28;20497;-71
2024/03/25 10:49:56;;;;;;;5.47;2.77;;;10.50;59.50;;;;;;4995505;28;20453;-72
2024/03/25 10:52:23;;;;;;;5.17;2.40;;;10.60;58.20;;;;;;4988129;28;20461;-71
2024/03/25 10:54:50;;;;;;;5.07;2.60;;;10.70;58.20;;;;;;4984494;28;20852;-71
2024/03/25 10:57:16;;;;;;;4.50;2.50;;;10.80;58.40;;;;;;4993682;28;21075;-73
2024/03/25 10:59:43;;;;;;;4.57;2.73;;;11.00;57.80;;;;;;4994552;28;20484;-71
2024/03/25 11:02:09;;;;;;;3.90;2.33;;;11.20;57.00;;;;;;4989718;28;20489;-72
2024/03/25 11:04:36;;;;;;;6.70;3.07;;;11.40;56.40;;;;;;4992398;28;20452;-72
2024/03/25 11:07:12;;;;;;;4.30;2.23;;;11.50;56.10;;;;;;4995045;28;20425;-71
2024/03/25 11:09:39;;;;;;;4.20;2.60;;;11.50;55.80;;;;;;4988067;28;20437;-73
2024/03/25 11:12:05;;;;;;;5.60;2.70;;;11.40;55.80;;;;;;4986366;28;20902;-71
2024/03/25 11:14:35;;;;;;;5.03;2.90;;;11.50;56.00;;;;;;4992321;28;20429;-74
2024/03/25 11:17:01;;;;;;;4.00;2.40;;;11.60;55.40;;;;;;5002236;28;20409;-72
2024/03/25 11:19:29;;;;;;;7.40;2.57;;;11.70;55.00;;;;;;4995749;28;20465;-72
2024/03/25 11:22:06;;;;;;;5.60;2.70;;;11.70;54.60;;;;;;4993279;28;20468;-72
2024/03/25 11:24:32;;;;;;;3.87;2.37;;;11.70;55.30;;;;;;4992801;28;20422;-71
2024/03/25 11:27:00;;;;;;;4.33;2.30;;;11.60;54.60;;;;;;4992541;28;20440;-71
2024/03/25 11:29:26;;;;;;;5.43;2.73;;;11.40;54.80;;;;;;4994762;28;20194;-74
2024/03/25 11:31:53;;;;;;;9.50;2.70;;;11.20;55.30;;;;;;4995656;28;21318;-73
2024/03/25 11:34:19;;;;;;;5.40;2.60;;;11.20;55.70;;;;;;4996496;28;20187;-73
2024/03/25 11:36:44;;;;;;;4.83;2.53;;;11.70;55.30;;;;;;4996936;28;20425;-70
2024/03/25 11:39:10;;;;;;;12.57;2.77;;;12.30;54.10;;;;;;4991641;28;20496;-70
2024/03/25 11:41:45;;;;;;;6.70;2.87;;;12.40;52.40;;;;;;4989071;28;20584;-72
2024/03/25 11:44:14;;;;;;;6.67;3.20;;;12.40;52.80;;;;;;4995116;28;20217;-69
2024/03/25 11:46:40;;;;;;;6.70;3.13;;;12.10;53.60;;;;;;4998665;28;20427;-73
2024/03/25 11:49:19;;;;;;;3.90;2.40;;;12.00;52.60;;;;;;4993500;28;20433;-71
2024/03/25 11:51:46;;;;;;;3.63;2.37;;;11.90;52.90;;;;;;4986823;28;21869;-74
2024/03/25 11:54:12;;;;;;;5.30;2.73;;;11.90;52.50;;;;;;4994811;28;20926;-73
2024/03/25 11:56:38;;;;;;;4.70;2.67;;;11.70;52.60;;;;;;5000238;28;20464;-74
2024/03/25 11:59:04;;;;;;;5.33;2.83;;;10.90;54.00;;;;;;5003977;28;20500;-71
2024/03/25 12:01:33;;;;;;;5.30;2.70;;;10.80;55.60;;;;;;4993387;28;20234;-71
2024/03/25 12:04:16;;;;;;;7.27;2.97;;;10.90;55.00;;;;;;4993115;28;20607;-72
2024/03/25 12:06:41;;;;;;;5.30;2.80;;;11.10;55.30;;;;;;4995862;28;20402;-71
2024/03/25 12:11:52;;;;;;;4.00;2.60;;;11.50;54.90;;;;;;4988940;28;20213;-72
2024/03/25 12:14:17;;;;;;;4.43;2.43;;;11.50;54.40;;;;;;4991906;28;20440;-73
2024/03/25 12:16:43;;;;;;;4.40;2.80;;;11.70;54.40;;;;;;4995213;28;20277;-71
2024/03/25 12:19:09;;;;;;;6.43;3.80;;;11.90;54.00;;;;;;4999412;28;20580;-72
2024/03/25 12:21:34;;;;;;;4.10;2.50;;;11.80;53.60;;;;;;4988785;28;20199;-74
2024/03/25 12:24:00;;;;;;;8.73;3.27;;;11.70;54.00;;;;;;4994906;28;20183;-73
2024/03/25 12:26:25;;;;;;;5.40;2.90;;;11.50;53.70;;;;;;4994588;28;20185;-73
2024/03/25 12:28:52;;;;;;;4.73;2.87;;;11.40;54.00;;;;;;4995481;28;20286;-71
2024/03/25 12:31:17;;;;;;;6.13;3.20;;;11.00;54.90;;;;;;4992247;28;20207;-74
2024/03/25 12:33:44;;;;;;;6.40;2.90;;;10.90;55.20;;;;;;4994179;28;20433;-73
2024/03/25 12:36:11;;;;;;;4.70;2.83;;;11.20;55.20;;;;;;4997749;28;20193;-71
2024/03/25 12:38:37;;;;;;;6.50;3.07;;;11.40;55.20;;;;;;5006501;28;20568;-72
2024/03/25 12:41:07;;;;;;;7.70;2.90;;;11.50;55.00;;;;;;5001321;28;20567;-72
2024/03/25 12:43:34;;;;;;;5.60;2.87;;;11.60;54.80;;;;;;4997913;28;20183;-72
2024/03/25 12:46:01;;;;;;;6.20;3.20;;;11.90;53.80;;;;;;4995042;28;20422;-72
2024/03/25 12:48:26;;;;;;;6.23;3.27;;;12.40;53.60;;;;;;4995121;28;20418;-73
2024/03/25 12:50:53;;;;;;;5.43;3.27;;;12.70;52.10;;;;;;4996801;28;20797;-70
2024/03/25 12:53:19;;;;;;;6.00;2.83;;;12.60;51.00;;;;;;4990482;28;20181;-70
2024/03/25 12:55:48;;;;;;;5.93;2.83;;;12.90;49.30;;;;;;4999381;28;20679;-73
2024/03/25 12:58:14;;;;;;;7.80;2.93;;;13.30;47.90;;;;;;4997410;28;20475;-72